Hennepin, Illinois
Current Conditions -  °F | °C
As of 5:15 AM on Monday 20 Oct 2014 (Local Time) from KVYS Reporting Station
Clear Clear  
Wind Chill: 50°   Ceiling: Unl
Heat Index: 50°   Visibility: 10mi
Dew Point: 45°   Wind: 10mph
Humidity: 83%   Direction: 250°WSW
Pressure: 29.85"   Gusts: NA
Location:  41.25°N, 89.34°W
Report Text: KVYS 201015Z AUTO 25009KT 10SM CLR 10/07 A2985 RMK AO2 T01000072
Loading
Personal Weather Stations






























Interactive Weather Map
Tropical Storm Tracking
New forecast layout! Learn more

10-Day Weather Forecast

Advertisements
Track Severe Weather on mobile